Time;durP1;ratioP1;P1;durP2;ratioP2;P2;SDS_P1;SDS_P2;PMS_P1;PMS_P2;Temp;Humidity;BMP_temperature;BMP_pressure;BME280_temperature;BME280_humidity;BME280_pressure;Samples;Min_cycle;Max_cycle;Signal;HPM_P1;HPM_P2
2021/03/12 00:01:25;;;;;;;;;4.50;1.00;;;;;;;;5022564;28;11440;-80
2021/03/12 00:03:53;;;;;;;;;0.25;0.25;;;;;;;;5022040;28;11459;-81
2021/03/12 00:06:20;;;;;;;;;0.00;0.00;;;;;;;;5020836;28;12261;-80
2021/03/12 00:08:48;;;;;;;;;0.00;0.00;;;;;;;;5023014;28;12280;-79
2021/03/12 00:11:15;;;;;;;;;3.00;0.00;;;;;;;;5021983;28;11588;-79
2021/03/12 00:13:42;;;;;;;;;2.00;0.00;;;;;;;;5022340;28;11481;-80
2021/03/12 00:16:09;;;;;;;;;0.00;0.00;;;;;;;;5020847;28;11492;-80
2021/03/12 00:18:38;;;;;;;;;1.50;0.00;;;;;;;;5022497;28;11489;-79
2021/03/12 00:21:08;;;;;;;;;1.00;1.00;;;;;;;;5022310;28;12352;-78
2021/03/12 00:23:35;;;;;;;;;0.00;0.00;;;;;;;;5020929;28;11621;-79
2021/03/12 00:26:03;;;;;;;;;3.50;0.00;;;;;;;;5022193;28;11592;-80
2021/03/12 00:28:30;;;;;;;;;2.00;0.00;;;;;;;;5022038;28;11463;-80
2021/03/12 00:30:57;;;;;;;;;0.00;0.00;;;;;;;;5021899;28;12258;-80
2021/03/12 00:33:25;;;;;;;;;0.00;0.00;;;;;;;;5020786;28;11460;-79
2021/03/12 00:35:52;;;;;;;;;0.00;0.00;;;;;;;;5023070;28;12115;-80
2021/03/12 00:38:21;;;;;;;;;1.50;0.00;;;;;;;;5020359;28;11477;-81
2021/03/12 00:40:50;;;;;;;;;0.00;0.00;;;;;;;;5021858;28;11700;-81
2021/03/12 00:43:18;;;;;;;;;1.00;0.00;;;;;;;;5022350;28;11573;-81
2021/03/12 00:45:47;;;;;;;;;0.00;0.00;;;;;;;;5020530;28;11471;-81
2021/03/12 00:48:13;;;;;;;;;1.00;1.00;;;;;;;;5026671;28;12234;-81
2021/03/12 00:50:41;;;;;;;;;1.25;0.75;;;;;;;;5025869;28;11475;-80
2021/03/12 00:53:09;;;;;;;;;0.50;0.00;;;;;;;;5026045;28;11591;-80
2021/03/12 00:55:37;;;;;;;;;1.00;0.00;;;;;;;;5025614;28;11491;-82
2021/03/12 00:58:05;;;;;;;;;0.00;0.00;;;;;;;;5026049;28;11485;-82
2021/03/12 01:00:36;;;;;;;;;0.00;0.00;;;;;;;;5025336;28;11388;-83
2021/03/12 01:03:03;;;;;;;;;0.00;0.00;;;;;;;;5024928;28;11457;-81
2021/03/12 01:05:31;;;;;;;;;1.00;0.00;;;;;;;;5025831;28;11640;-81
2021/03/12 01:07:58;;;;;;;;;0.00;0.00;;;;;;;;5018308;28;11572;-81
2021/03/12 01:10:26;;;;;;;;;0.00;0.00;;;;;;;;5026468;28;11479;-82
2021/03/12 01:12:55;;;;;;;;;2.75;0.00;;;;;;;;5023320;28;11509;-81
2021/03/12 01:15:23;;;;;;;;;1.00;0.00;;;;;;;;5027122;28;11486;-82
2021/03/12 01:17:50;;;;;;;;;1.00;1.00;;;;;;;;5026129;28;11475;-79
2021/03/12 01:20:20;;;;;;;;;0.00;0.00;;;;;;;;5023932;28;11497;-80
2021/03/12 01:22:47;;;;;;;;;2.75;0.00;;;;;;;;5025319;28;11544;-80
2021/03/12 01:25:17;;;;;;;;;0.25;0.25;;;;;;;;5024796;28;11609;-80
2021/03/12 01:27:44;;;;;;;;;0.00;0.00;;;;;;;;5024696;28;11455;-79
2021/03/12 01:30:17;;;;;;;;;1.75;0.00;;;;;;;;5023754;28;11590;-77
2021/03/12 01:32:44;;;;;;;;;1.00;1.00;;;;;;;;5025598;28;11633;-79
2021/03/12 01:35:17;;;;;;;;;0.00;0.00;;;;;;;;5039820;28;11569;-78
2021/03/12 01:37:44;;;;;;;;;1.00;1.00;;;;;;;;5022585;28;11477;-78
2021/03/12 01:40:14;;;;;;;;;1.00;1.00;;;;;;;;5024051;28;11610;-79
2021/03/12 01:42:42;;;;;;;;;1.00;1.00;;;;;;;;5022024;28;11473;-77
2021/03/12 01:45:21;;;;;;;;;1.50;1.00;;;;;;;;5023989;28;11464;-79
2021/03/12 01:47:51;;;;;;;;;1.00;1.00;;;;;;;;5026936;28;11481;-78
2021/03/12 01:50:21;;;;;;;;;3.50;0.75;;;;;;;;5033969;28;11627;-80
2021/03/12 01:52:48;;;;;;;;;0.00;0.00;;;;;;;;5035300;28;11491;-79
2021/03/12 01:55:21;;;;;;;;;0.00;0.00;;;;;;;;5028018;28;11518;-78
2021/03/12 01:57:48;;;;;;;;;0.50;0.00;;;;;;;;5027098;28;11570;-78
2021/03/12 02:00:17;;;;;;;;;1.00;1.00;;;;;;;;5024633;28;11486;-80
2021/03/12 02:02:45;;;;;;;;;0.00;0.00;;;;;;;;5024708;28;11606;-80
2021/03/12 02:05:12;;;;;;;;;4.50;1.00;;;;;;;;5023920;28;11555;-78
2021/03/12 02:07:40;;;;;;;;;3.50;1.00;;;;;;;;5025413;28;11531;-78
2021/03/12 02:10:10;;;;;;;;;2.00;0.00;;;;;;;;5022066;28;11486;-80
2021/03/12 02:12:40;;;;;;;;;0.00;0.00;;;;;;;;5027204;28;11487;-79
2021/03/12 02:15:16;;;;;;;;;6.50;1.00;;;;;;;;5026796;28;11632;-79
2021/03/12 02:17:56;;;;;;;;;1.25;0.00;;;;;;;;5025327;28;11577;-78
2021/03/12 02:20:42;;;;;;;;;1.00;1.00;;;;;;;;5023622;28;11483;-78
2021/03/12 02:23:19;;;;;;;;;0.00;0.00;;;;;;;;5024568;28;11472;-77
2021/03/12 02:25:53;;;;;;;;;1.25;1.25;;;;;;;;5024477;28;11534;-79
2021/03/12 02:28:23;;;;;;;;;1.00;1.00;;;;;;;;5015118;28;11521;-80
2021/03/12 02:30:50;;;;;;;;;1.00;1.00;;;;;;;;5023153;28;11421;-79
2021/03/12 02:33:17;;;;;;;;;2.00;1.00;;;;;;;;5010888;28;11508;-80
2021/03/12 02:35:46;;;;;;;;;1.00;1.00;;;;;;;;5017905;28;11506;-80
2021/03/12 02:38:16;;;;;;;;;5.75;0.00;;;;;;;;5024476;28;11558;-80
2021/03/12 02:40:45;;;;;;;;;2.00;1.00;;;;;;;;5024173;28;11493;-80
2021/03/12 02:43:13;;;;;;;;;1.00;1.00;;;;;;;;5019595;28;11498;-80
2021/03/12 02:45:42;;;;;;;;;0.00;0.00;;;;;;;;5023770;28;11554;-78
2021/03/12 02:48:09;;;;;;;;;3.00;2.00;;;;;;;;5023137;28;11571;-78
2021/03/12 02:50:37;;;;;;;;;3.25;0.75;;;;;;;;5023061;28;11558;-80
2021/03/12 02:53:04;;;;;;;;;4.25;0.00;;;;;;;;5022829;28;11516;-79
2021/03/12 02:55:31;;;;;;;;;1.50;1.00;;;;;;;;5024436;28;11472;-79
2021/03/12 02:57:59;;;;;;;;;3.75;1.50;;;;;;;;5022293;28;11494;-80
2021/03/12 03:00:26;;;;;;;;;0.75;0.75;;;;;;;;5023507;28;11446;-79
2021/03/12 03:02:54;;;;;;;;;1.00;1.00;;;;;;;;5023048;28;11462;-80
2021/03/12 03:05:23;;;;;;;;;0.25;0.25;;;;;;;;5022894;28;11476;-80
2021/03/12 03:07:50;;;;;;;;;0.00;0.00;;;;;;;;5023605;28;11484;-80
2021/03/12 03:10:19;;;;;;;;;1.00;1.00;;;;;;;;5023059;28;12188;-78
2021/03/12 03:12:46;;;;;;;;;0.75;0.75;;;;;;;;5022624;28;12334;-80
2021/03/12 03:15:16;;;;;;;;;1.25;0.75;;;;;;;;5021863;28;11634;-81
2021/03/12 03:17:44;;;;;;;;;0.00;0.00;;;;;;;;5023686;28;11506;-81
2021/03/12 03:20:15;;;;;;;;;0.00;0.00;;;;;;;;5022733;28;11528;-80
2021/03/12 03:22:43;;;;;;;;;1.00;1.00;;;;;;;;5036978;28;11594;-80
2021/03/12 03:25:12;;;;;;;;;0.00;0.00;;;;;;;;5023688;28;11531;-81
2021/03/12 03:27:39;;;;;;;;;3.00;0.00;;;;;;;;5021800;28;11501;-81
2021/03/12 03:30:07;;;;;;;;;0.00;0.00;;;;;;;;5022900;28;11542;-80
2021/03/12 03:32:35;;;;;;;;;1.75;1.00;;;;;;;;5022336;28;12489;-80
2021/03/12 03:35:04;;;;;;;;;4.00;2.00;;;;;;;;5021850;28;13224;-81
2021/03/12 03:37:32;;;;;;;;;4.75;2.00;;;;;;;;5022185;28;11553;-81
2021/03/12 03:40:00;;;;;;;;;0.00;0.00;;;;;;;;5024318;28;11510;-83
2021/03/12 03:42:29;;;;;;;;;2.50;0.75;;;;;;;;5023161;28;11645;-83
2021/03/12 03:44:58;;;;;;;;;1.75;1.00;;;;;;;;5022539;28;11546;-83
2021/03/12 03:47:28;;;;;;;;;1.00;1.00;;;;;;;;5023051;28;11487;-82
2021/03/12 03:49:55;;;;;;;;;1.00;1.00;;;;;;;;5022648;28;11543;-82
2021/03/12 03:52:22;;;;;;;;;3.00;1.00;;;;;;;;5023068;28;11556;-84
2021/03/12 03:54:52;;;;;;;;;1.00;1.00;;;;;;;;5018789;28;11560;-82
2021/03/12 03:57:21;;;;;;;;;1.50;0.00;;;;;;;;5023353;28;11571;-83
2021/03/12 03:59:48;;;;;;;;;0.75;0.75;;;;;;;;5023539;28;11541;-83
2021/03/12 04:02:21;;;;;;;;;1.00;1.00;;;;;;;;5021865;28;11617;-82
2021/03/12 04:04:50;;;;;;;;;4.00;1.00;;;;;;;;5023647;28;12348;-81
2021/03/12 04:07:19;;;;;;;;;1.50;0.75;;;;;;;;5021227;28;11538;-80
2021/03/12 04:09:48;;;;;;;;;2.50;0.00;;;;;;;;5023850;28;11664;-79
2021/03/12 04:12:17;;;;;;;;;1.00;1.00;;;;;;;;5015177;28;11684;-81
2021/03/12 04:14:46;;;;;;;;;1.75;1.75;;;;;;;;5023170;28;11553;-80
2021/03/12 04:17:13;;;;;;;;;2.00;0.25;;;;;;;;5022354;28;11611;-79
2021/03/12 04:19:40;;;;;;;;;3.50;0.50;;;;;;;;5022603;28;11581;-80
2021/03/12 04:22:08;;;;;;;;;1.00;1.00;;;;;;;;5027244;28;11615;-79
2021/03/12 04:24:35;;;;;;;;;2.00;0.75;;;;;;;;5024938;28;11611;-80
2021/03/12 04:27:02;;;;;;;;;1.00;1.00;;;;;;;;5041748;28;11615;-79
2021/03/12 04:29:31;;;;;;;;;4.25;1.00;;;;;;;;5026279;28;11637;-79
2021/03/12 04:31:58;;;;;;;;;4.50;1.00;;;;;;;;5026534;28;11527;-79
2021/03/12 04:34:26;;;;;;;;;2.00;0.00;;;;;;;;5026546;28;12308;-80
2021/03/12 04:36:53;;;;;;;;;1.25;0.75;;;;;;;;5026340;28;11683;-79
2021/03/12 04:39:20;;;;;;;;;0.50;0.50;;;;;;;;5026687;28;11536;-80
2021/03/12 04:41:48;;;;;;;;;0.75;0.00;;;;;;;;5039422;28;11536;-81
2021/03/12 04:44:16;;;;;;;;;1.50;1.00;;;;;;;;5042042;28;11538;-82
2021/03/12 04:46:44;;;;;;;;;0.00;0.00;;;;;;;;5026035;28;11560;-82
2021/03/12 04:49:12;;;;;;;;;4.00;1.00;;;;;;;;5027587;28;11643;-82
2021/03/12 04:51:40;;;;;;;;;0.50;0.50;;;;;;;;5026102;28;11645;-81
2021/03/12 04:54:07;;;;;;;;;2.00;1.00;;;;;;;;5026617;28;12209;-81
2021/03/12 04:56:34;;;;;;;;;3.50;2.00;;;;;;;;5024305;28;11532;-82
2021/03/12 04:59:03;;;;;;;;;4.25;0.75;;;;;;;;5026024;28;11662;-81
2021/03/12 05:01:30;;;;;;;;;0.00;0.00;;;;;;;;5041065;28;11518;-81
2021/03/12 05:03:58;;;;;;;;;0.00;0.00;;;;;;;;5025448;28;11566;-80
2021/03/12 05:06:25;;;;;;;;;2.00;1.00;;;;;;;;5026642;28;11657;-80
2021/03/12 05:08:53;;;;;;;;;1.00;0.00;;;;;;;;5025078;28;11537;-80
2021/03/12 05:11:20;;;;;;;;;0.75;0.75;;;;;;;;5025999;28;11640;-79
2021/03/12 05:13:50;;;;;;;;;4.00;1.50;;;;;;;;5023650;28;11534;-83
2021/03/12 05:16:17;;;;;;;;;0.00;0.00;;;;;;;;5030622;28;11615;-79
2021/03/12 05:18:44;;;;;;;;;4.25;0.00;;;;;;;;5025651;28;11527;-81
2021/03/12 05:21:13;;;;;;;;;1.75;1.00;;;;;;;;5024852;28;11544;-81
2021/03/12 05:23:41;;;;;;;;;2.00;1.00;;;;;;;;5025924;28;12264;-79
2021/03/12 05:26:08;;;;;;;;;4.00;1.00;;;;;;;;5023960;28;11546;-81
2021/03/12 05:28:35;;;;;;;;;1.00;1.00;;;;;;;;5025685;28;11542;-81
2021/03/12 05:31:01;;;;;;;;;0.00;0.00;;;;;;;;5024157;28;11488;-80
2021/03/12 05:33:28;;;;;;;;;1.50;1.00;;;;;;;;5022198;28;12330;-82
2021/03/12 05:35:55;;;;;;;;;0.75;0.75;;;;;;;;5025561;28;11526;-81
2021/03/12 05:38:23;;;;;;;;;1.25;1.25;;;;;;;;5025104;28;11529;-81
2021/03/12 05:40:50;;;;;;;;;4.75;2.00;;;;;;;;5026917;28;11521;-80
2021/03/12 05:43:17;;;;;;;;;4.00;1.00;;;;;;;;5023998;28;12283;-80
2021/03/12 05:45:48;;;;;;;;;2.50;1.75;;;;;;;;5025652;28;11531;-79
2021/03/12 05:48:16;;;;;;;;;0.50;0.50;;;;;;;;5024336;28;11635;-78
2021/03/12 05:50:43;;;;;;;;;2.50;1.25;;;;;;;;5040581;28;11695;-79
2021/03/12 05:53:11;;;;;;;;;2.00;2.00;;;;;;;;5024262;28;11533;-78
2021/03/12 05:55:39;;;;;;;;;4.50;2.00;;;;;;;;5025526;28;11531;-80
2021/03/12 05:58:06;;;;;;;;;1.00;1.00;;;;;;;;5024938;28;11510;-79
2021/03/12 06:00:33;;;;;;;;;1.00;1.00;;;;;;;;5023932;28;11591;-85
2021/03/12 06:03:11;;;;;;;;;0.50;0.00;;;;;;;;5023876;28;11521;-82
2021/03/12 06:05:39;;;;;;;;;1.75;1.00;;;;;;;;5024471;28;12280;-81
2021/03/12 06:08:06;;;;;;;;;1.50;1.50;;;;;;;;5024463;28;11630;-80
2021/03/12 06:10:37;;;;;;;;;5.00;1.00;;;;;;;;5021616;28;11564;-85
2021/03/12 06:13:05;;;;;;;;;1.50;1.00;;;;;;;;5021781;28;11560;-82
2021/03/12 06:15:37;;;;;;;;;4.00;2.00;;;;;;;;5022846;28;11533;-78
2021/03/12 06:18:14;;;;;;;;;0.00;0.00;;;;;;;;5022277;28;11720;-76
2021/03/12 06:20:41;;;;;;;;;1.00;1.00;;;;;;;;5023626;28;12347;-75
2021/03/12 06:23:08;;;;;;;;;0.25;0.25;;;;;;;;5020167;28;11635;-76
2021/03/12 06:25:35;;;;;;;;;1.50;1.25;;;;;;;;5022610;28;11543;-78
2021/03/12 06:28:19;;;;;;;;;0.50;0.50;;;;;;;;5021401;28;11765;-78
2021/03/12 06:30:47;;;;;;;;;11.25;5.50;;;;;;;;5021188;28;12270;-75
2021/03/12 06:33:27;;;;;;;;;3.25;1.00;;;;;;;;5022095;28;11548;-78
2021/03/12 06:35:55;;;;;;;;;2.50;1.25;;;;;;;;5019980;28;11561;-80
2021/03/12 06:38:22;;;;;;;;;1.75;1.75;;;;;;;;5022212;28;11659;-79
2021/03/12 06:40:49;;;;;;;;;5.25;2.00;;;;;;;;5022485;28;11537;-79
2021/03/12 06:43:18;;;;;;;;;4.75;1.75;;;;;;;;5022448;28;11580;-76
2021/03/12 06:46:01;;;;;;;;;4.00;1.50;;;;;;;;5021933;28;11651;-78
2021/03/12 06:48:30;;;;;;;;;1.75;1.75;;;;;;;;5020227;28;11550;-69
2021/03/12 06:50:58;;;;;;;;;3.00;2.00;;;;;;;;5019295;28;11649;-68
2021/03/12 06:53:37;;;;;;;;;0.75;0.75;;;;;;;;5019132;28;12363;-70
2021/03/12 06:56:05;;;;;;;;;4.00;0.00;;;;;;;;5021434;28;11545;-69
2021/03/12 06:58:34;;;;;;;;;5.00;1.00;;;;;;;;5021266;28;11537;-69
2021/03/12 07:01:02;;;;;;;;;5.00;1.00;;;;;;;;5021362;28;11583;-68
2021/03/12 07:03:30;;;;;;;;;5.50;2.00;;;;;;;;5022157;28;11532;-68
2021/03/12 07:06:03;;;;;;;;;2.00;2.00;;;;;;;;5018521;28;11541;-68
2021/03/12 07:08:35;;;;;;;;;7.50;5.25;;;;;;;;5022899;28;12332;-67
2021/03/12 07:11:03;;;;;;;;;1.00;1.00;;;;;;;;5022430;28;11572;-68
2021/03/12 07:13:30;;;;;;;;;4.00;1.00;;;;;;;;5022662;28;11445;-68
2021/03/12 07:15:59;;;;;;;;;3.00;1.25;;;;;;;;5023162;28;11482;-68
2021/03/12 07:18:26;;;;;;;;;1.25;1.00;;;;;;;;5021851;28;11515;-68
2021/03/12 07:20:52;;;;;;;;;1.00;1.00;;;;;;;;5016555;28;11537;-68
2021/03/12 07:23:21;;;;;;;;;1.25;1.25;;;;;;;;5021893;28;11449;-68
2021/03/12 07:25:49;;;;;;;;;5.75;3.50;;;;;;;;5019148;28;11511;-68
2021/03/12 07:28:16;;;;;;;;;0.25;0.25;;;;;;;;5020202;28;12126;-67
2021/03/12 07:30:44;;;;;;;;;2.00;2.00;;;;;;;;5022906;28;12816;-68
2021/03/12 07:33:15;;;;;;;;;3.00;1.25;;;;;;;;5021008;28;11461;-68
2021/03/12 07:35:43;;;;;;;;;1.00;1.00;;;;;;;;5022511;28;11466;-69
2021/03/12 07:38:12;;;;;;;;;1.00;1.00;;;;;;;;5022508;28;11480;-68
2021/03/12 07:40:39;;;;;;;;;4.00;1.50;;;;;;;;5037139;28;11500;-67
2021/03/12 07:43:08;;;;;;;;;0.75;0.75;;;;;;;;5022442;28;11464;-69
2021/03/12 07:45:36;;;;;;;;;4.50;4.50;;;;;;;;5021797;28;11543;-68
2021/03/12 07:48:04;;;;;;;;;2.00;0.00;;;;;;;;5023329;28;11472;-68
2021/03/12 07:50:35;;;;;;;;;1.00;1.00;;;;;;;;5022844;28;11468;-68
2021/03/12 07:53:03;;;;;;;;;2.00;1.25;;;;;;;;5022859;28;11494;-68
2021/03/12 07:55:52;;;;;;;;;1.50;1.50;;;;;;;;5021496;28;11450;-67
2021/03/12 07:58:48;;;;;;;;;1.00;1.00;;;;;;;;5021271;28;11615;-68
2021/03/12 08:01:15;;;;;;;;;6.50;0.25;;;;;;;;5019051;28;11384;-67
2021/03/12 08:03:42;;;;;;;;;5.25;1.25;;;;;;;;5020326;28;11575;-68
2021/03/12 08:06:34;;;;;;;;;3.50;1.00;;;;;;;;5021155;28;11486;-68
2021/03/12 08:09:02;;;;;;;;;2.00;1.00;;;;;;;;5002995;28;11545;-68
2021/03/12 08:11:33;;;;;;;;;2.00;1.00;;;;;;;;5022681;28;11509;-67
2021/03/12 08:14:16;;;;;;;;;1.00;1.00;;;;;;;;5023331;28;11473;-68
2021/03/12 08:17:15;;;;;;;;;4.75;1.00;;;;;;;;5017884;28;11504;-68
2021/03/12 08:19:46;;;;;;;;;3.00;2.25;;;;;;;;5022255;28;11466;-67
2021/03/12 08:22:44;;;;;;;;;0.75;0.75;;;;;;;;5023613;28;11530;-68
2021/03/12 08:25:43;;;;;;;;;4.50;2.00;;;;;;;;5022411;28;11586;-68
2021/03/12 08:28:25;;;;;;;;;1.00;1.00;;;;;;;;5015835;28;11468;-68
2021/03/12 08:30:53;;;;;;;;;4.00;1.75;;;;;;;;5023041;28;11513;-68
2021/03/12 08:33:31;;;;;;;;;2.00;2.00;;;;;;;;5021465;28;11499;-68
2021/03/12 08:35:59;;;;;;;;;1.00;1.00;;;;;;;;5023333;28;11230;-67
2021/03/12 08:38:37;;;;;;;;;2.50;1.00;;;;;;;;5022458;28;11001;-68
2021/03/12 08:41:07;;;;;;;;;4.00;2.00;;;;;;;;5012551;28;11241;-68
2021/03/12 08:43:36;;;;;;;;;2.25;1.00;;;;;;;;5021417;28;11056;-67
2021/03/12 08:46:04;;;;;;;;;3.00;0.00;;;;;;;;5037730;28;11003;-68
2021/03/12 08:48:33;;;;;;;;;4.50;1.00;;;;;;;;5021702;28;10983;-68
2021/03/12 08:51:02;;;;;;;;;2.00;1.00;;;;;;;;5022020;28;12048;-67
2021/03/12 08:53:30;;;;;;;;;1.00;1.00;;;;;;;;5022966;28;10688;-68
2021/03/12 08:55:59;;;;;;;;;2.75;1.25;;;;;;;;5023005;28;10772;-68
2021/03/12 08:58:27;;;;;;;;;2.75;1.00;;;;;;;;5021147;28;10695;-68
2021/03/12 09:00:55;;;;;;;;;1.75;1.75;;;;;;;;5021308;28;10461;-67
2021/03/12 09:03:23;;;;;;;;;5.00;2.00;;;;;;;;5019177;28;10756;-67
2021/03/12 09:05:52;;;;;;;;;3.25;1.25;;;;;;;;5021847;28;11969;-67
2021/03/12 09:08:22;;;;;;;;;2.00;0.00;;;;;;;;5020477;28;11654;-68
2021/03/12 09:10:50;;;;;;;;;2.00;1.25;;;;;;;;5025351;28;10558;-67
2021/03/12 09:13:20;;;;;;;;;0.00;0.00;;;;;;;;5025457;28;10678;-67
2021/03/12 09:15:48;;;;;;;;;1.00;1.00;;;;;;;;5014877;28;10838;-67
2021/03/12 09:18:17;;;;;;;;;0.75;0.75;;;;;;;;5025496;28;10642;-67
2021/03/12 09:20:45;;;;;;;;;1.75;1.75;;;;;;;;5024467;28;10394;-67
2021/03/12 09:23:12;;;;;;;;;1.00;1.00;;;;;;;;5024838;28;10576;-67
2021/03/12 09:25:39;;;;;;;;;0.00;0.00;;;;;;;;5022580;28;10440;-68
2021/03/12 09:28:08;;;;;;;;;3.50;1.50;;;;;;;;5025052;28;10276;-68
2021/03/12 09:30:37;;;;;;;;;2.25;0.75;;;;;;;;5023251;28;10168;-68
2021/03/12 09:33:05;;;;;;;;;1.25;1.00;;;;;;;;5023434;28;10930;-67
2021/03/12 09:35:37;;;;;;;;;6.00;1.50;;;;;;;;5024387;28;10094;-69
2021/03/12 09:38:04;;;;;;;;;3.75;2.00;;;;;;;;5025357;28;10136;-68
2021/03/12 09:40:37;;;;;;;;;2.25;0.00;;;;;;;;5026268;28;10033;-67
2021/03/12 09:43:05;;;;;;;;;1.25;1.25;;;;;;;;5019033;28;9941;-68
2021/03/12 09:45:32;;;;;;;;;5.50;1.75;;;;;;;;5031480;28;9973;-68
2021/03/12 09:48:00;;;;;;;;;0.00;0.00;;;;;;;;5040732;28;9889;-69
2021/03/12 09:50:27;;;;;;;;;2.00;0.75;;;;;;;;5029645;28;9851;-68
2021/03/12 09:52:56;;;;;;;;;1.50;0.00;;;;;;;;5027097;28;9799;-68
2021/03/12 09:55:23;;;;;;;;;1.00;1.00;;;;;;;;5025603;28;9755;-68
2021/03/12 09:57:50;;;;;;;;;1.50;1.00;;;;;;;;5026761;28;9722;-67
2021/03/12 10:00:25;;;;;;;;;0.00;0.00;;;;;;;;5024695;28;9669;-68
2021/03/12 10:02:54;;;;;;;;;4.25;2.00;;;;;;;;5025018;28;10428;-68
2021/03/12 10:05:23;;;;;;;;;0.00;0.00;;;;;;;;5024001;28;10472;-67
2021/03/12 10:07:51;;;;;;;;;1.75;1.00;;;;;;;;5025706;28;10284;-68
2021/03/12 10:10:23;;;;;;;;;1.50;0.75;;;;;;;;5025639;28;9607;-67
2021/03/12 10:12:52;;;;;;;;;0.00;0.00;;;;;;;;5024938;28;9623;-68
2021/03/12 10:15:21;;;;;;;;;2.00;0.00;;;;;;;;5024907;28;9732;-67
2021/03/12 10:17:48;;;;;;;;;0.50;0.50;;;;;;;;5024147;28;9691;-68
2021/03/12 10:20:24;;;;;;;;;0.75;0.75;;;;;;;;5025183;28;9756;-67
2021/03/12 10:22:53;;;;;;;;;0.25;0.25;;;;;;;;5025258;28;9697;-67
2021/03/12 10:25:21;;;;;;;;;0.00;0.00;;;;;;;;5025029;28;9572;-67
2021/03/12 10:27:50;;;;;;;;;0.00;0.00;;;;;;;;5025097;28;9546;-68
2021/03/12 10:30:18;;;;;;;;;3.00;1.00;;;;;;;;5023936;28;10136;-68
2021/03/12 10:32:47;;;;;;;;;0.50;0.50;;;;;;;;5025486;28;9559;-68
2021/03/12 10:35:28;;;;;;;;;1.00;1.00;;;;;;;;5023713;28;9546;-68
2021/03/12 10:37:56;;;;;;;;;1.00;1.00;;;;;;;;5018153;28;9442;-68
2021/03/12 10:40:24;;;;;;;;;1.67;0.67;;;;;;;;5025441;28;9355;-66
2021/03/12 10:42:51;;;;;;;;;0.00;0.00;;;;;;;;5024198;28;10158;-68
2021/03/12 10:45:24;;;;;;;;;1.25;1.25;;;;;;;;5024933;28;9439;-68
2021/03/12 10:47:59;;;;;;;;;0.00;0.00;;;;;;;;5023801;28;9492;-68
2021/03/12 10:50:29;;;;;;;;;0.75;0.00;;;;;;;;5025206;28;9507;-67
2021/03/12 10:53:07;;;;;;;;;1.00;1.00;;;;;;;;5022940;28;9592;-68
2021/03/12 10:55:35;;;;;;;;;0.75;0.75;;;;;;;;5024440;28;9666;-68
2021/03/12 10:58:02;;;;;;;;;0.25;0.25;;;;;;;;5022987;28;9682;-68
2021/03/12 11:00:30;;;;;;;;;1.00;0.00;;;;;;;;5022790;28;9457;-68
2021/03/12 11:02:59;;;;;;;;;1.25;1.25;;;;;;;;5024158;28;9477;-68
2021/03/12 11:05:27;;;;;;;;;0.00;0.00;;;;;;;;5023442;28;10337;-68
2021/03/12 11:07:53;;;;;;;;;3.00;1.00;;;;;;;;5024072;28;9348;-68
2021/03/12 11:10:21;;;;;;;;;1.75;0.75;;;;;;;;5023805;28;9430;-68
2021/03/12 11:12:49;;;;;;;;;0.00;0.00;;;;;;;;5023796;28;9498;-68
2021/03/12 11:15:18;;;;;;;;;0.00;0.00;;;;;;;;5024835;28;9494;-68
2021/03/12 11:17:46;;;;;;;;;2.00;0.00;;;;;;;;5022819;28;9355;-68
2021/03/12 11:20:18;;;;;;;;;2.33;0.33;;;;;;;;5022004;28;9451;-69
2021/03/12 11:22:46;;;;;;;;;2.00;1.00;;;;;;;;5017787;28;9475;-68
2021/03/12 11:25:15;;;;;;;;;0.00;0.00;;;;;;;;5023322;28;9416;-68
2021/03/12 11:27:43;;;;;;;;;2.00;1.00;;;;;;;;5022032;28;9423;-67
2021/03/12 11:30:13;;;;;;;;;0.00;0.00;;;;;;;;5021346;28;9362;-68
2021/03/12 11:32:40;;;;;;;;;0.00;0.00;;;;;;;;5023146;28;9275;-67
2021/03/12 11:35:08;;;;;;;;;1.00;1.00;;;;;;;;5021837;28;9350;-67
2021/03/12 11:37:34;;;;;;;;;0.67;0.00;;;;;;;;5021980;28;9089;-67
2021/03/12 11:40:04;;;;;;;;;1.00;1.00;;;;;;;;5021079;28;9145;-70
2021/03/12 11:42:30;;;;;;;;;0.00;0.00;;;;;;;;5022422;28;9021;-69
2021/03/12 11:44:58;;;;;;;;;2.00;1.00;;;;;;;;5020493;28;9066;-70
2021/03/12 11:47:25;;;;;;;;;0.00;0.00;;;;;;;;5021346;28;9071;-68
2021/03/12 11:49:53;;;;;;;;;0.00;0.00;;;;;;;;5022946;28;8959;-69
2021/03/12 11:52:25;;;;;;;;;1.00;1.00;;;;;;;;5022356;28;8852;-71
2021/03/12 11:54:52;;;;;;;;;1.00;1.00;;;;;;;;5022486;28;8923;-71
2021/03/12 11:57:20;;;;;;;;;1.75;1.00;;;;;;;;5020064;28;9034;-71
2021/03/12 11:59:47;;;;;;;;;1.25;1.25;;;;;;;;5021814;28;8899;-70
2021/03/12 12:02:15;;;;;;;;;0.00;0.00;;;;;;;;5020024;28;8848;-71
2021/03/12 12:04:42;;;;;;;;;0.00;0.00;;;;;;;;5019654;28;10605;-69
2021/03/12 12:07:10;;;;;;;;;4.00;1.00;;;;;;;;5021339;28;9107;-68
2021/03/12 12:09:38;;;;;;;;;0.33;0.33;;;;;;;;5021681;28;9091;-70
2021/03/12 12:12:05;;;;;;;;;1.00;0.00;;;;;;;;5020111;28;9033;-68
2021/03/12 12:14:34;;;;;;;;;0.00;0.00;;;;;;;;5016865;28;9212;-69
2021/03/12 12:17:01;;;;;;;;;0.00;0.00;;;;;;;;5020180;28;9209;-68
2021/03/12 12:19:27;;;;;;;;;0.00;0.00;;;;;;;;5017960;28;9236;-68
2021/03/12 12:21:54;;;;;;;;;0.00;0.00;;;;;;;;5018174;28;9183;-68
2021/03/12 12:24:21;;;;;;;;;0.67;0.00;;;;;;;;5021212;28;9267;-69
2021/03/12 12:26:48;;;;;;;;;1.00;1.00;;;;;;;;5035763;28;9290;-68
2021/03/12 12:29:15;;;;;;;;;0.00;0.00;;;;;;;;5022774;28;9219;-69
2021/03/12 12:31:43;;;;;;;;;3.00;0.00;;;;;;;;5017030;28;9052;-68
2021/03/12 12:34:10;;;;;;;;;0.00;0.00;;;;;;;;5020311;28;9044;-68
2021/03/12 12:36:38;;;;;;;;;1.00;0.00;;;;;;;;5020789;28;9103;-68
2021/03/12 12:39:06;;;;;;;;;0.00;0.00;;;;;;;;5021282;28;9143;-69
2021/03/12 12:41:33;;;;;;;;;0.00;0.00;;;;;;;;5024452;28;9011;-68
2021/03/12 12:44:00;;;;;;;;;2.00;0.00;;;;;;;;5025904;28;9040;-68
2021/03/12 12:46:27;;;;;;;;;1.33;0.00;;;;;;;;5025968;28;9066;-67
2021/03/12 12:48:55;;;;;;;;;0.33;0.00;;;;;;;;5025431;28;9025;-68
2021/03/12 12:51:22;;;;;;;;;0.00;0.00;;;;;;;;5025506;28;8969;-68
2021/03/12 12:53:49;;;;;;;;;0.00;0.00;;;;;;;;5025259;28;9045;-68
2021/03/12 12:56:15;;;;;;;;;0.00;0.00;;;;;;;;5025431;28;9057;-69
2021/03/12 12:58:42;;;;;;;;;2.00;0.00;;;;;;;;5025264;28;8880;-68
2021/03/12 13:01:09;;;;;;;;;1.00;1.00;;;;;;;;5023969;28;9086;-68
2021/03/12 13:03:36;;;;;;;;;1.33;0.00;;;;;;;;5023262;28;9087;-69
2021/03/12 13:06:04;;;;;;;;;0.67;0.00;;;;;;;;5023852;28;8941;-68
2021/03/12 13:08:32;;;;;;;;;0.00;0.00;;;;;;;;5023762;28;9118;-68
2021/03/12 13:10:59;;;;;;;;;0.67;0.00;;;;;;;;5022480;28;8979;-68
2021/03/12 13:13:26;;;;;;;;;0.00;0.00;;;;;;;;5025183;28;9431;-68
2021/03/12 13:15:55;;;;;;;;;0.00;0.00;;;;;;;;5023790;28;8892;-68
2021/03/12 13:18:22;;;;;;;;;0.00;0.00;;;;;;;;5022678;28;8887;-68
2021/03/12 13:20:53;;;;;;;;;0.00;0.00;;;;;;;;5022528;28;9098;-68
2021/03/12 13:23:21;;;;;;;;;0.00;0.00;;;;;;;;5023578;28;9037;-69
2021/03/12 13:25:48;;;;;;;;;0.00;0.00;;;;;;;;5021356;28;9236;-69
2021/03/12 13:28:15;;;;;;;;;1.33;0.00;;;;;;;;5020777;28;9134;-70
2021/03/12 13:30:43;;;;;;;;;0.00;0.00;;;;;;;;5023069;28;9321;-68
2021/03/12 13:33:09;;;;;;;;;0.67;0.00;;;;;;;;5023484;28;9266;-68
2021/03/12 13:35:36;;;;;;;;;3.00;0.00;;;;;;;;5024482;28;10036;-68
2021/03/12 13:38:04;;;;;;;;;1.75;0.00;;;;;;;;5024809;28;9389;-68
2021/03/12 13:40:32;;;;;;;;;0.25;0.00;;;;;;;;5025434;28;9621;-70
2021/03/12 13:43:01;;;;;;;;;0.00;0.00;;;;;;;;5023759;28;10608;-70
2021/03/12 13:45:28;;;;;;;;;0.00;0.00;;;;;;;;5022742;28;9945;-71
2021/03/12 13:47:54;;;;;;;;;0.00;0.00;;;;;;;;5020218;28;10232;-68
2021/03/12 13:50:22;;;;;;;;;0.00;0.00;;;;;;;;5021739;28;10541;-69
2021/03/12 13:52:49;;;;;;;;;0.00;0.00;;;;;;;;5022302;28;10779;-69
2021/03/12 13:55:16;;;;;;;;;0.00;0.00;;;;;;;;5022163;28;10768;-68
2021/03/12 13:57:44;;;;;;;;;0.00;0.00;;;;;;;;5023367;28;10884;-68
2021/03/12 14:00:13;;;;;;;;;0.00;0.00;;;;;;;;5023982;28;10730;-69
2021/03/12 14:02:40;;;;;;;;;0.00;0.00;;;;;;;;5022897;28;10923;-69
2021/03/12 14:05:09;;;;;;;;;0.00;0.00;;;;;;;;5022819;28;10769;-69
2021/03/12 14:07:37;;;;;;;;;1.00;0.00;;;;;;;;5019886;28;10623;-71
2021/03/12 14:10:05;;;;;;;;;1.00;1.00;;;;;;;;5024362;28;10546;-70
2021/03/12 14:12:32;;;;;;;;;1.00;1.00;;;;;;;;5023930;28;10552;-70
2021/03/12 14:15:00;;;;;;;;;1.50;0.25;;;;;;;;5024901;28;10406;-69
2021/03/12 14:17:27;;;;;;;;;1.00;1.00;;;;;;;;5024609;28;10390;-69
2021/03/12 14:19:53;;;;;;;;;0.00;0.00;;;;;;;;5023978;28;10347;-69
2021/03/12 14:22:20;;;;;;;;;1.50;0.00;;;;;;;;5024628;28;10150;-69
2021/03/12 14:24:47;;;;;;;;;2.00;0.00;;;;;;;;5021418;28;10184;-69
2021/03/12 14:27:15;;;;;;;;;0.00;0.00;;;;;;;;5024015;28;10087;-69
2021/03/12 14:29:42;;;;;;;;;0.00;0.00;;;;;;;;5021131;28;9933;-69
2021/03/12 14:32:10;;;;;;;;;0.00;0.00;;;;;;;;5022490;28;9921;-69
2021/03/12 14:34:37;;;;;;;;;0.00;0.00;;;;;;;;5023705;28;10537;-72
2021/03/12 14:37:04;;;;;;;;;4.00;0.00;;;;;;;;5018109;28;11080;-72
2021/03/12 14:39:30;;;;;;;;;0.00;0.00;;;;;;;;5024804;28;11455;-71
2021/03/12 14:41:57;;;;;;;;;0.00;0.00;;;;;;;;5023088;28;11433;-72
2021/03/12 14:44:26;;;;;;;;;1.00;1.00;;;;;;;;5024773;28;11468;-70
2021/03/12 14:46:53;;;;;;;;;0.00;0.00;;;;;;;;5022961;28;11517;-71
2021/03/12 14:49:22;;;;;;;;;0.00;0.00;;;;;;;;5024203;28;11485;-70
2021/03/12 14:51:49;;;;;;;;;0.00;0.00;;;;;;;;5023373;28;11436;-70
2021/03/12 14:54:16;;;;;;;;;0.00;0.00;;;;;;;;5024178;28;11473;-70
2021/03/12 14:56:43;;;;;;;;;0.00;0.00;;;;;;;;5022535;28;11445;-71